Latest Weather Observations for Cape Bruny AWS

IDT60801

Issued at 10:11 pm EDT Friday 6 December 2019 (issued every 10 minutes, with the page automatically refreshed every 10 minutes)

About weather observations | Map of weather stations | Latest weather observations for TAS | Other Formats
Station Details ID: 094198 Name: CAPE BRUNY (CAPE BRUNY) Lat: -43.49 Lon: 147.14 Height: 59.7 m
Data from the previous 72 hours. | See also: Recent months at Cape Bruny AWS
Date/Time
EDT
Temp
°C
App
Temp
°C
Dew
Point
°C
Rel
Hum
%
Delta-T
°C
Wind Press
QNH
hPa
Press
MSL
hPa
Rain since
9am
mm
Dir  Spd
km/h
Gust
km/h
Spd
kts
Gust
kts
06/10:00pm 8.5 -1.5 4.1 74 1.9 W 46 74 25 40 1000.8 1000.8 2.8
06/09:58pm 8.5 -1.0 4.1 74 1.9 W 43 74 23 40 1000.8 1000.8 2.8
06/09:57pm 8.8 -0.6 4.4 74 2.0 W 43 74 23 40 1000.8 1000.8 2.8
06/09:56pm 8.7 0.0 3.9 72 2.1 W 39 74 21 40 1000.9 1000.9 2.8
06/09:30pm 7.7 -2.3 4.5 80 1.4 W 46 57 25 31 1000.5 1000.5 2.8
06/09:09pm 8.7 -2.5 4.1 73 2.0 W 52 72 28 39 1000.4 1000.4 2.6
06/09:00pm 8.7 -1.8 3.7 71 2.2 W 48 59 26 32 1000.2 1000.2 2.6
06/08:30pm 8.9 -3.0 4.5 74 1.9 W 56 74 30 40 999.7 999.7 2.6
06/08:00pm 9.5 -0.9 4.1 69 2.4 W 48 67 26 36 999.4 999.4 2.6
06/07:30pm 9.5 -2.1 3.7 67 2.5 W 54 72 29 39 998.7 998.7 2.6
06/07:00pm 9.5 -1.9 5.1 74 2.0 W 54 76 29 41 998.4 998.4 2.6
06/06:30pm 9.0 -1.9 5.6 79 1.5 W 52 78 28 42 997.9 997.9 2.6
06/06:00pm 9.4 -2.3 5.2 75 1.9 W 56 82 30 44 996.9 996.9 2.4
06/05:30pm 9.8 -2.4 5.6 75 1.9 W 59 78 32 42 996.7 996.7 2.4
06/05:22pm 9.3 -3.7 5.5 77 1.7 W 63 85 34 46 996.5 996.5 2.4
06/05:19pm 9.2 -3.5 5.2 76 1.8 W 61 85 33 46 996.4 996.4 2.4
06/05:00pm 9.4 -1.3 6.3 81 1.4 W 52 72 28 39 996.5 996.5 2.2
06/04:30pm 9.7 -2.0 6.2 79 1.6 W 57 76 31 41 996.4 996.4 2.2
06/04:00pm 8.5 -4.4 6.0 84 1.2 W 63 91 34 49 995.5 995.4 2.2
06/03:36pm 8.8 -3.2 6.6 86 1.0 W 59 78 32 42 995.2 995.1 1.8
06/03:30pm 8.7 -3.3 6.5 86 1.0 W 59 76 32 41 995.3 995.2 1.8
06/03:00pm 8.6 -4.5 6.6 87 0.9 WSW 65 89 35 48 995.1 995.0 1.2
06/02:30pm 11.7 -1.7 5.3 65 3.0 W 65 89 35 48 994.3 994.2 0.6
06/02:01pm 11.4 -1.0 6.5 72 2.3 W 61 82 33 44 994.3 994.2 0.6
06/02:00pm 10.8 -1.8 5.6 70 2.4 W 61 78 33 42 994.4 994.3 0.6
06/01:30pm 11.0 -1.4 6.6 74 2.1 W 61 82 33 44 994.3 994.2 0.6
06/01:05pm 10.3 -3.6 6.5 77 1.8 W 69 87 37 47 994.4 994.3 0.6
06/01:00pm 10.3 -4.6 6.3 76 1.9 W 74 87 40 47 994.3 994.2 0.6
06/12:30pm 9.4 -4.1 6.5 82 1.4 W 67 85 36 46 993.9 993.8 0.4
06/12:26pm 9.8 -3.4 6.2 78 1.7 W 65 85 35 46 994.1 994.0 0.2
06/12:16pm 11.2 -2.4 6.1 71 2.4 W 67 85 36 46 994.0 993.9 0.2
06/12:05pm 9.7 -4.5 5.9 77 1.8 W 70 102 38 55 993.8 993.7 0.2
06/12:03pm 9.6 -4.3 5.0 73 2.1 W 67 102 36 55 993.5 993.4 0.2
06/12:01pm 10.3 -2.3 5.7 73 2.1 W 61 83 33 45 994.0 993.9 0.0
06/12:00pm 10.6 -1.5 6.0 73 2.2 W 59 76 32 41 994.2 994.1 0.0
06/11:56am 10.9 -0.7 5.7 70 2.4 W 56 70 30 38 994.1 994.0 0.0
06/11:42am 11.0 2.5 7.1 77 1.9 W 41 59 22 32 994.1 994.0 0.0
06/11:30am 11.0 1.4 6.4 73 2.2 W 46 61 25 33 994.0 993.9 0.0
06/11:27am 11.0 0.7 6.4 73 2.2 W 50 69 27 37 993.9 993.8 0.0
06/11:00am 11.9 0.6 5.5 65 3.0 W 54 70 29 38 993.8 993.7 0.0
06/10:30am 12.0 0.7 5.6 65 3.0 W 54 72 29 39 993.5 993.4 0.0
06/10:01am 11.3 -0.1 5.0 65 2.9 W 54 74 29 40 993.6 993.5 0.0
06/10:00am 11.6 0.8 5.9 68 2.7 W 52 69 28 37 993.7 993.6 0.0
06/09:36am 11.1 1.7 5.2 67 2.7 W 44 69 24 37 993.9 993.8 0.0
06/09:30am 11.1 3.1 5.6 69 2.5 W 37 46 20 25 994.1 994.0 0.0
06/09:05am 10.1 -1.0 6.4 78 1.7 W 54 72 29 39 993.9 993.8 0.0
06/09:00am 9.9 -1.5 6.6 80 1.6 W 56 72 30 39 994.0 993.9 4.2
06/08:54am 10.1 0.4 5.9 75 1.9 W 46 70 25 38 993.8 993.7 4.2
06/08:30am 10.4 2.3 7.1 80 1.6 W 39 52 21 28 993.8 993.7 4.0
06/08:15am 9.1 1.9 6.0 81 1.4 W 33 48 18 26 993.7 993.6 4.0
06/08:00am 9.1 2.6 6.4 83 1.3 WNW 30 52 16 28 993.9 993.8 4.0
06/07:50am 9.1 -1.6 6.4 83 1.3 W 52 63 28 34 993.4 993.3 4.0
06/07:30am 8.4 -4.8 6.2 86 1.0 W 65 89 35 48 993.0 992.9 4.0
06/07:06am 8.3 -5.7 6.1 86 1.0 W 69 96 37 52 992.8 992.7 2.8
06/07:05am 8.3 -5.3 6.1 86 1.0 W 67 96 36 52 992.7 992.6 2.8
06/07:00am 8.6 -2.9 6.4 86 1.0 W 56 82 30 44 992.7 992.6 2.6
06/06:40am 9.1 2.2 6.4 83 1.3 W 32 70 17 38 993.1 993.0 2.4
06/06:30am 9.5 2.6 6.4 81 1.4 W 32 50 17 27 993.0 992.9 2.4
06/06:22am 9.2 3.1 6.5 83 1.3 W 28 46 15 25 993.0 992.9 2.4
06/06:00am 8.7 1.8 6.3 85 1.1 WNW 32 44 17 24 992.8 992.7 2.2
06/05:30am 9.6 0.3 6.0 78 1.7 WNW 44 57 24 31 992.8 992.7 2.2
06/05:00am 9.6 0.8 5.4 75 1.9 WNW 41 50 22 27 992.2 992.1 2.2
06/04:30am 9.6 -1.0 5.0 73 2.1 W 50 65 27 35 992.2 992.1 2.2
06/04:16am 9.0 -0.3 5.7 80 1.5 W 44 65 24 35 992.7 992.6 2.2
06/04:00am 9.0 1.3 7.0 87 0.9 WNW 37 50 20 27 993.3 993.2 2.0
06/03:30am 8.9 1.8 6.5 85 1.1 WNW 33 44 18 24 993.0 992.9 1.6
06/03:00am 8.9 0.6 6.0 82 1.3 WNW 39 52 21 28 992.9 992.8 1.4
06/02:30am 9.8 1.5 6.3 79 1.6 WNW 39 54 21 29 993.4 993.3 1.2
06/02:00am 9.8 0.6 5.6 75 1.9 WNW 43 57 23 31 993.2 993.1 1.0
06/01:30am 9.8 0.4 5.4 74 2.0 WNW 44 59 24 32 993.6 993.5 1.0
06/01:00am 9.7 0.3 4.7 71 2.3 WNW 43 63 23 34 993.8 993.7 1.0
06/12:30am 9.7 -1.6 5.3 74 2.0 WNW 54 72 29 39 994.3 994.2 1.0
06/12:09am 9.6 -0.4 4.4 70 2.3 WNW 46 65 25 35 994.7 994.6 1.0
06/12:00am 9.6 -1.5 4.4 70 2.3 WNW 52 65 28 35 994.8 994.7 1.0
 
Date/Time
EDT
Temp
°C
App
Temp
°C
Dew
Point
°C
Rel
Hum
%
Delta-T
°C
Wind Press
QNH
hPa
Press
MSL
hPa
Rain since
9am
mm
Dir  Spd
km/h
Gust
km/h
Spd
kts
Gust
kts
05/11:47pm 9.5 -0.5 4.5 71 2.2 WNW 46 65 25 35 994.8 994.7 1.0
05/11:30pm 9.5 0.0 4.7 72 2.1 WNW 44 57 24 31 995.1 995.0 1.0
05/11:11pm 9.5 3.0 4.7 72 2.1 WNW 28 46 15 25 995.4 995.3 1.0
05/11:00pm 9.6 3.1 4.6 71 2.3 WNW 28 39 15 21 995.5 995.4 1.0
05/10:36pm 10.3 0.0 4.9 69 2.4 W 48 67 26 36 995.9 995.9 1.0
05/10:30pm 10.2 -1.7 4.4 67 2.6 W 56 70 30 38 996.0 996.0 1.0
05/10:20pm 10.3 0.0 4.9 69 2.4 W 48 67 26 36 995.8 995.8 1.0
05/10:15pm 10.0 1.1 5.2 72 2.2 W 41 61 22 33 995.9 995.9 1.0
05/10:00pm 9.6 0.8 5.4 75 1.9 W 41 56 22 30 995.8 995.8 1.0
05/09:40pm 10.2 2.1 5.2 71 2.3 W 37 61 20 33 996.0 996.0 1.0
05/09:30pm 10.0 2.9 5.4 73 2.1 W 32 43 17 23 995.7 995.7 1.0
05/09:00pm 10.1 2.0 5.1 71 2.3 W 37 46 20 25 995.4 995.3 1.0
05/08:36pm 10.4 1.9 5.2 70 2.4 W 39 59 21 32 995.1 995.0 1.0
05/08:30pm 10.2 1.2 4.8 69 2.4 W 41 56 22 30 995.0 994.9 1.0
05/08:29pm 10.4 1.6 5.4 71 2.3 W 41 56 22 30 995.0 994.9 1.0
05/08:00pm 10.0 -1.5 6.2 77 1.8 WSW 56 78 30 42 994.6 994.5 1.0
05/07:30pm 10.7 0.0 6.5 75 2.0 W 52 70 28 38 994.1 994.0 1.0
05/07:00pm 9.9 -0.2 7.2 83 1.3 W 50 69 27 37 993.5 993.4 1.0
05/06:30pm 10.0 -1.5 7.3 83 1.3 W 57 80 31 43 993.3 993.2 1.0
05/06:02pm 10.0 -1.4 7.6 85 1.2 W 57 76 31 41 992.5 992.4 1.0
05/06:00pm 10.1 -1.6 7.9 86 1.1 W 59 76 32 41 992.6 992.5 1.0
05/05:34pm 9.9 -2.5 8.0 88 0.9 WSW 63 83 34 45 992.1 992.0 1.0
05/05:30pm 10.0 -1.6 8.3 89 0.8 WSW 59 76 32 41 992.2 992.1 1.0
05/05:24pm 10.0 -0.3 8.3 89 0.8 WSW 52 72 28 39 992.2 992.1 0.8
05/05:00pm 10.9 1.5 8.8 87 1.1 WSW 48 65 26 35 992.2 992.1 0.6
05/04:30pm 11.2 1.3 8.4 83 1.4 WSW 50 69 27 37 992.0 991.9 0.6
05/04:11pm 11.4 4.9 9.0 85 1.2 WSW 33 52 18 28 992.0 991.9 0.6
05/04:00pm 11.8 5.0 9.2 84 1.3 WSW 35 44 19 24 991.9 991.8 0.6
05/03:30pm 13.0 6.1 8.9 76 2.1 WSW 35 46 19 25 991.8 991.7 0.6
05/03:00pm 14.3 5.6 8.3 67 3.0 W 44 56 24 30 991.6 991.5 0.6
05/02:30pm 14.9 7.8 7.9 63 3.5 W 35 50 19 27 991.5 991.4 0.6
05/02:00pm 13.3 7.4 10.5 83 1.5 WNW 32 43 17 23 991.7 991.6 0.6
05/01:46pm 11.9 6.7 8.9 82 1.5 W 26 39 14 21 992.0 991.9 0.6
05/01:30pm 12.3 9.7 9.5 83 1.4 W 13 20 7 11 992.1 992.0 0.4
05/01:00pm 12.2 5.4 9.4 83 1.4 WNW 35 54 19 29 992.1 992.0 0.2
05/12:59pm 12.2 5.4 9.4 83 1.4 WNW 35 54 19 29 992.2 992.1 0.2
05/12:30pm 12.8 5.1 8.7 76 2.1 WNW 39 54 21 29 992.0 991.9 0.0
05/12:00pm 12.9 4.5 8.8 76 2.1 WNW 43 57 23 31 992.0 991.9 0.0
05/11:30am 14.0 6.2 8.2 68 2.9 WNW 39 54 21 29 992.3 992.2 0.0
05/11:00am 14.4 7.3 7.9 65 3.3 WNW 35 43 19 23 992.5 992.4 0.0
05/10:30am 13.0 3.8 7.9 71 2.5 WNW 46 57 25 31 992.7 992.6 0.0
05/10:00am 13.3 5.1 6.6 64 3.3 WNW 39 57 21 31 992.4 992.3 0.0
05/09:44am 12.8 4.3 7.0 68 2.8 WNW 41 59 22 32 992.9 992.8 0.0
05/09:30am 12.3 3.8 7.0 70 2.6 WNW 41 54 22 29 993.1 993.0 0.0
05/09:00am 12.0 3.4 6.3 68 2.7 WNW 41 54 22 29 993.4 993.3 0.0
05/08:30am 11.8 3.8 5.7 66 2.8 WNW 37 50 20 27 993.3 993.2 0.0
05/08:00am 11.5 2.5 6.6 72 2.3 WNW 43 54 23 29 993.4 993.3 0.0
05/07:48am 11.2 3.3 6.3 72 2.3 WNW 37 56 20 30 993.4 993.3 0.0
05/07:30am 10.8 2.8 5.8 71 2.3 WNW 37 50 20 27 993.5 993.4 0.0
05/07:00am 10.8 3.2 6.0 72 2.3 WNW 35 46 19 25 993.5 993.4 0.0
05/06:30am 10.6 3.0 5.8 72 2.2 NW 35 52 19 28 993.5 993.4 0.0
05/06:24am 10.4 3.1 5.4 71 2.3 NW 33 52 18 28 993.7 993.6 0.0
05/06:00am 10.4 2.8 5.8 73 2.1 NW 35 50 19 27 993.6 993.5 0.0
05/05:30am 10.5 3.3 5.9 73 2.1 NW 33 43 18 23 993.6 993.5 0.0
05/05:00am 10.6 3.4 5.8 72 2.2 NW 33 43 18 23 993.7 993.6 0.0
05/04:30am 10.5 2.9 5.7 72 2.2 WNW 35 54 19 29 993.8 993.7 0.0
05/04:06am 10.6 3.0 5.8 72 2.2 WNW 35 54 19 29 994.2 994.1 0.0
05/04:00am 10.6 3.0 5.6 71 2.3 NW 35 52 19 28 994.1 994.0 0.0
05/03:38am 10.4 1.9 5.2 70 2.4 WNW 39 57 21 31 994.4 994.3 0.0
05/03:30am 10.5 1.7 5.5 71 2.3 WNW 41 57 22 31 994.3 994.2 0.0
05/03:26am 10.5 2.1 5.5 71 2.3 WNW 39 57 21 31 994.5 994.4 0.0
05/03:00am 10.7 1.9 5.7 71 2.3 WNW 41 57 22 31 994.7 994.6 0.0
05/02:36am 10.7 3.6 5.5 70 2.4 WNW 32 50 17 27 994.9 994.8 0.0
05/02:30am 10.7 3.0 5.5 70 2.4 WNW 35 50 19 27 995.0 994.9 0.0
05/02:00am 10.8 2.8 5.6 70 2.4 WNW 37 50 20 27 994.8 994.7 0.0
05/01:41am 10.5 3.4 5.5 71 2.3 WNW 32 52 17 28 994.8 994.7 0.0
05/01:30am 10.5 4.5 5.5 71 2.3 WNW 26 41 14 22 995.1 995.0 0.0
05/01:00am 10.1 4.0 6.4 78 1.7 WSW 28 35 15 19 995.4 995.3 0.0
05/12:30am 10.2 3.3 6.5 78 1.7 WSW 32 46 17 25 995.6 995.6 0.0
05/12:00am 10.4 5.1 5.2 70 2.4 W 22 32 12 17 995.8 995.8 0.0
 
Date/Time
EDT
Temp
°C
App
Temp
°C
Dew
Point
°C
Rel
Hum
%
Delta-T
°C
Wind Press
QNH
hPa
Press
MSL
hPa
Rain since
9am
mm
Dir  Spd
km/h
Gust
km/h
Spd
kts
Gust
kts
04/11:30pm 10.6 4.2 5.4 70 2.4 W 28 35 15 19 995.9 995.9 0.0
04/11:00pm 10.1 3.6 6.6 79 1.7 WSW 30 43 16 23 996.1 996.1 0.0
04/10:30pm 10.4 4.4 5.4 71 2.3 WNW 26 35 14 19 996.2 996.2 0.0
04/10:00pm 10.4 3.9 4.5 67 2.7 W 28 41 15 22 996.4 996.4 0.0
04/09:32pm 10.4 1.5 5.0 69 2.5 W 41 59 22 32 996.4 996.4 0.0
04/09:30pm 10.4 1.1 5.0 69 2.5 W 43 59 23 32 996.3 996.3 0.0
04/09:05pm 10.3 1.7 4.9 69 2.4 W 39 57 21 31 996.1 996.1 0.0
04/09:00pm 10.2 2.4 5.0 70 2.4 WSW 35 52 19 28 996.2 996.2 0.0
04/08:41pm 10.3 2.8 4.7 68 2.5 WSW 33 54 18 29 996.5 996.5 0.0
04/08:30pm 10.5 3.0 4.4 66 2.7 W 33 46 18 25 996.5 996.5 0.0
04/08:11pm 10.7 2.7 3.7 62 3.1 W 35 54 19 29 996.4 996.4 0.0
04/08:00pm 10.7 2.7 3.7 62 3.1 W 35 46 19 25 996.3 996.3 0.0
04/07:44pm 10.6 1.3 3.2 60 3.2 W 41 59 22 32 996.2 996.2 0.0
04/07:30pm 10.3 1.1 3.3 62 3.1 W 41 57 22 31 996.6 996.6 0.0
04/07:12pm 10.8 2.8 4.0 63 3.0 W 35 54 19 29 996.4 996.4 0.0
04/07:00pm 11.2 3.7 3.5 59 3.4 W 32 44 17 24 996.3 996.3 0.0
04/06:46pm 11.0 2.6 3.5 60 3.3 W 37 57 20 31 996.2 996.2 0.0
04/06:30pm 10.4 2.5 4.1 65 2.8 W 35 50 19 27 996.3 996.3 0.0
04/06:00pm 11.7 1.6 3.7 58 3.6 W 46 57 25 31 995.6 995.6 0.0
04/05:42pm 11.5 0.5 2.8 55 3.8 W 50 69 27 37 995.5 995.4 0.0
04/05:30pm 12.1 2.3 3.1 54 4.0 W 44 56 24 30 995.9 995.9 0.0
04/05:01pm 11.1 1.6 4.8 65 2.9 WNW 44 63 24 34 995.9 995.9 0.0
04/05:00pm 11.2 1.4 5.1 66 2.8 WNW 46 63 25 34 995.9 995.9 0.0
04/04:33pm 12.1 1.9 5.0 62 3.3 WNW 48 67 26 36 995.6 995.6 0.0
04/04:30pm 11.9 1.4 5.5 65 3.0 WNW 50 67 27 36 995.6 995.6 0.0
04/04:13pm 11.8 2.4 5.2 64 3.0 WNW 44 65 24 35 995.6 995.6 0.0
04/04:00pm 11.2 1.9 4.9 65 2.9 W 43 59 23 32 995.5 995.4 0.0
04/03:30pm 12.5 3.2 5.0 60 3.5 W 43 52 23 28 995.4 995.3 0.0
04/03:00pm 11.6 0.9 4.8 63 3.1 WNW 50 65 27 35 995.4 995.3 0.0
04/02:33pm 13.1 5.4 5.5 60 3.6 W 35 54 19 29 995.6 995.6 0.0
04/02:30pm 12.3 3.9 5.7 64 3.1 W 39 54 21 29 995.7 995.7 0.0
04/02:09pm 10.8 1.7 4.0 63 3.0 WNW 41 61 22 33 995.6 995.6 0.0
04/02:00pm 11.2 2.6 4.7 64 3.0 WNW 39 48 21 26 995.8 995.8 0.0
04/01:35pm 11.0 -0.7 3.1 58 3.5 W 54 74 29 40 995.3 995.2 0.0
04/01:30pm 10.9 -0.4 3.2 59 3.4 W 52 65 28 35 995.5 995.4 0.0
04/01:09pm 9.6 -0.2 5.4 75 1.9 W 46 65 25 35 996.3 996.3 0.0
04/01:00pm 9.4 -1.6 4.8 73 2.1 WSW 52 63 28 34 996.1 996.1 0.0
04/12:30pm 10.0 -0.2 5.4 73 2.1 WSW 48 61 26 33 995.9 995.9 0.0
04/12:21pm 10.0 -1.1 4.6 69 2.4 W 52 70 28 38 995.9 995.9 0.0
04/12:00pm 10.8 -0.1 3.4 60 3.3 WNW 50 70 27 38 995.4 995.3 0.0
04/11:48am 11.5 0.3 2.0 52 4.1 W 50 70 27 38 995.4 995.3 0.0
04/11:35am 11.5 0.3 4.0 60 3.4 W 52 69 28 37 995.9 995.9 0.0
04/11:30am 11.6 -1.1 2.9 55 3.8 W 59 87 32 47 995.7 995.7 0.0
04/11:10am 10.9 1.0 2.5 56 3.6 W 44 76 24 41 995.7 995.7 0.0
04/11:05am 10.7 3.7 4.0 63 3.0 WNW 30 59 16 32 995.9 995.9 0.0
04/11:00am 10.9 3.9 4.1 63 3.1 WNW 30 43 16 23 996.0 996.0 0.0
04/10:57am 10.7 2.7 4.0 63 3.0 W 35 54 19 29 996.1 996.1 0.0
04/10:40am 9.5 -1.0 3.7 67 2.5 W 48 65 26 35 996.0 996.0 0.0
04/10:30am 9.2 -3.2 2.8 64 2.7 W 57 80 31 43 995.9 995.9 0.0
04/10:24am 9.6 -2.4 3.6 66 2.6 W 56 80 30 43 996.0 996.0 0.0
04/10:03am 9.1 -0.7 2.4 63 2.8 W 43 65 23 35 996.0 996.0 0.0
04/10:00am 9.5 -0.1 3.3 65 2.7 W 43 56 23 30 996.2 996.2 0.0
04/09:30am 7.6 -2.7 4.7 82 1.3 W 48 69 26 37 996.6 996.6 0.0
04/09:00am 8.0 -1.8 3.5 73 1.9 WNW 44 72 24 39 996.3 996.3 12.0
04/08:30am 7.3 -2.5 3.4 76 1.7 WNW 44 65 24 35 996.4 996.4 12.0
04/08:10am 8.0 -3.9 2.0 66 2.5 W 54 76 29 41 996.4 996.4 12.0
04/08:00am 7.9 -3.3 1.7 65 2.6 W 50 65 27 35 996.3 996.3 12.0
04/07:35am 7.2 -3.1 2.9 74 1.8 W 46 65 25 35 996.6 996.6 12.0
04/07:30am 7.3 -3.2 3.4 76 1.7 W 48 65 26 35 996.6 996.6 12.0
04/07:03am 6.3 -2.1 3.5 82 1.2 WNW 37 61 20 33 996.5 996.5 12.0
04/07:00am 6.0 -2.1 3.2 82 1.2 WNW 35 46 19 25 996.6 996.6 12.0
04/06:30am 5.6 -1.6 2.9 83 1.1 NW 30 39 16 21 996.3 996.3 12.0
04/06:07am 5.5 -3.4 3.0 84 1.0 WNW 39 57 21 31 996.2 996.2 12.0
04/06:00am 5.8 -4.3 3.5 85 1.0 W 46 61 25 33 996.2 996.2 12.0
04/05:46am 5.7 -1.5 3.2 84 1.0 WNW 30 50 16 27 996.1 996.1 11.8
04/05:30am 5.3 -2.3 3.0 85 0.9 WNW 32 43 17 23 995.7 995.7 11.8
04/05:00am 5.4 -2.7 3.4 87 0.8 WNW 35 48 19 26 996.0 996.0 11.8
04/04:31am 5.1 -5.1 3.0 86 0.9 W 46 72 25 39 995.9 995.9 11.4
04/04:30am 5.4 -4.2 3.3 86 0.9 W 43 69 23 37 996.0 996.0 11.4
04/04:25am 5.9 -1.2 3.6 85 1.0 WNW 30 52 16 28 996.3 996.3 11.0
04/04:00am 5.4 -1.5 2.8 83 1.1 W 28 35 15 19 995.6 995.6 10.6
04/03:30am 5.7 -1.9 3.0 83 1.1 WNW 32 44 17 24 995.9 995.9 10.4
04/03:00am 5.6 -4.6 3.4 86 0.9 W 46 61 25 33 995.9 995.9 10.4
04/02:48am 5.5 -4.6 3.5 87 0.8 WNW 46 65 25 35 996.1 996.1 10.2
04/02:30am 5.1 -5.9 3.1 87 0.8 W 50 63 27 34 995.8 995.8 10.0
04/02:02am 5.7 -7.3 3.4 85 1.0 W 61 80 33 43 995.5 995.4 9.2
04/02:00am 6.0 -7.7 3.8 86 0.9 W 65 80 35 43 995.5 995.4 9.2
04/01:30am 5.2 -8.2 3.2 87 0.8 W 63 98 34 53 996.0 996.0 8.8
04/01:27am 5.1 -7.3 2.8 85 0.9 W 57 98 31 53 995.8 995.8 8.6
04/01:26am 5.3 -6.5 3.0 85 0.9 W 54 98 29 53 995.7 995.7 8.6
04/01:02am 5.9 -5.8 3.2 83 1.1 W 54 72 29 39 995.8 995.8 7.6
04/01:00am 6.0 -6.1 3.2 82 1.2 W 56 72 30 39 995.7 995.7 7.4
04/12:48am 7.2 -4.6 2.5 72 2.0 W 54 72 29 39 995.4 995.3 7.2
04/12:30am 8.0 -4.0 1.8 65 2.6 W 54 70 29 38 995.1 995.0 7.2
04/12:00am 7.8 -5.8 2.5 69 2.2 W 63 76 34 41 994.9 994.8 7.2
 
Date/Time
EDT
Temp
°C
App
Temp
°C
Dew
Point
°C
Rel
Hum
%
Delta-T
°C
Wind Press
QNH
hPa
Press
MSL
hPa
Rain since
9am
mm
Dir  Spd
km/h
Gust
km/h
Spd
kts
Gust
kts
03/11:49pm 8.0 -4.9 2.0 66 2.5 W 59 91 32 49 994.8 994.7 7.2
03/11:31pm 8.1 -4.0 1.0 61 2.9 W 54 72 29 39 994.5 994.4 7.2
03/11:30pm 8.2 -3.8 1.6 63 2.7 W 54 70 29 38 994.5 994.4 7.2
03/11:00pm 7.8 -4.7 2.1 67 2.4 W 57 76 31 41 994.2 994.1 7.2
03/10:30pm 7.8 -4.5 3.3 73 1.9 W 57 80 31 43 993.8 993.7 7.2

Other formats

Comma delimited format used in spreadsheet applications
http://www.bom.gov.au/fwo/IDT60801/IDT60801.95967.axf

JavaScript Object Notation format (JSON) in row-major order
http://www.bom.gov.au/fwo/IDT60801/IDT60801.95967.json

Data quality

Most of these data are generated automatically and are frequently updated. Quality checks on data are not normally performed. It is possible for incorrect values to appear. Refer to information at About Latest Weather Observations and please check the disclaimer before using these data.